Time;durP1;ratioP1;P1;durP2;ratioP2;P2;SDS_P1;SDS_P2;PMS_P1;PMS_P2;Temp;Humidity;BMP_temperature;BMP_pressure;BME280_temperature;BME280_humidity;BME280_pressure;Samples;Min_cycle;Max_cycle;Signal;HPM_P1;HPM_P2
2021/01/12 00:01:40;;;;;;;9.18;5.60;;;7.80;95.00;;;;;;5070978;28;20124;-78
2021/01/12 00:04:06;;;;;;;6.93;5.43;;;7.80;95.00;;;;;;5072729;28;20020;-75
2021/01/12 00:06:32;;;;;;;12.13;6.57;;;7.80;95.00;;;;;;5075896;28;20174;-76
2021/01/12 00:08:57;;;;;;;39.53;7.20;;;7.80;95.00;;;;;;5073967;28;20025;-73
2021/01/12 00:11:23;;;;;;;91.65;9.73;;;7.80;95.10;;;;;;5075199;28;20397;-75
2021/01/12 00:13:49;;;;;;;7.05;4.88;;;7.90;95.10;;;;;;5075882;28;20469;-75
2021/01/12 00:16:18;;;;;;;6.57;4.82;;;7.90;95.10;;;;;;5073512;28;20111;-73
2021/01/12 00:18:44;;;;;;;7.18;5.07;;;7.80;95.20;;;;;;5073973;28;20027;-75
2021/01/12 00:21:09;;;;;;;6.13;4.90;;;7.90;95.30;;;;;;5073114;28;20033;-75
2021/01/12 00:23:35;;;;;;;7.25;5.00;;;7.80;95.30;;;;;;5075653;28;20029;-74
2021/01/12 00:26:05;;;;;;;5.60;5.07;;;7.90;95.30;;;;;;5073937;28;20099;-75
2021/01/12 00:28:30;;;;;;;6.22;5.43;;;7.80;95.40;;;;;;5074157;28;20025;-74
2021/01/12 00:30:56;;;;;;;7.22;4.78;;;7.80;95.40;;;;;;5075513;28;20358;-71
2021/01/12 00:33:21;;;;;;;7.07;5.85;;;7.80;95.50;;;;;;5074386;28;20028;-75
2021/01/12 00:35:47;;;;;;;5.80;5.10;;;7.80;95.50;;;;;;5073834;28;20021;-73
2021/01/12 00:38:12;;;;;;;5.80;5.20;;;7.80;95.60;;;;;;5073960;28;20476;-78
2021/01/12 00:40:38;;;;;;;7.03;5.85;;;7.80;95.60;;;;;;5075024;28;20029;-74
2021/01/12 00:43:03;;;;;;;5.70;5.13;;;7.80;95.70;;;;;;5074059;28;20024;-70
2021/01/12 00:45:29;;;;;;;6.57;5.97;;;7.80;95.70;;;;;;5074933;28;20016;-73
2021/01/12 00:47:54;;;;;;;7.70;5.85;;;7.80;95.80;;;;;;5075565;28;20028;-75
2021/01/12 00:50:20;;;;;;;6.80;6.05;;;7.80;95.80;;;;;;5075308;28;20095;-75
2021/01/12 00:52:45;;;;;;;6.18;5.57;;;7.80;95.80;;;;;;5074942;28;20025;-74
2021/01/12 00:55:11;;;;;;;6.80;5.68;;;7.80;95.90;;;;;;5075251;28;20017;-76
2021/01/12 00:57:39;;;;;;;7.28;6.57;;;7.80;95.90;;;;;;5075035;28;20040;-74
2021/01/12 01:00:05;;;;;;;7.28;6.50;;;7.70;96.00;;;;;;5074193;28;20059;-75
2021/01/12 01:02:30;;;;;;;7.43;6.45;;;7.70;96.00;;;;;;5075508;28;20025;-77
2021/01/12 01:04:56;;;;;;;7.45;6.75;;;7.70;96.00;;;;;;5075336;28;20074;-77
2021/01/12 01:07:21;;;;;;;9.13;6.78;;;7.80;96.10;;;;;;5074422;28;20461;-77
2021/01/12 01:09:47;;;;;;;9.00;7.50;;;7.80;96.10;;;;;;5074875;28;20035;-77
2021/01/12 01:12:13;;;;;;;8.25;7.05;;;7.80;96.00;;;;;;5073753;28;20044;-76
2021/01/12 01:14:38;;;;;;;9.15;7.10;;;7.80;96.00;;;;;;5074550;28;20087;-76
2021/01/12 01:17:04;;;;;;;7.65;6.95;;;7.90;96.00;;;;;;5073147;28;20064;-74
2021/01/12 01:19:31;;;;;;;7.75;7.00;;;7.90;96.00;;;;;;5075156;28;20074;-74
2021/01/12 01:21:57;;;;;;;7.35;6.75;;;7.90;95.90;;;;;;5074135;28;20108;-76
2021/01/12 01:24:22;;;;;;;7.50;6.10;;;7.80;95.90;;;;;;5073493;28;20700;-74
2021/01/12 01:26:55;;;;;;;6.43;5.82;;;7.80;95.90;;;;;;5074831;28;20099;-77
2021/01/12 01:29:21;;;;;;;7.63;6.78;;;7.80;95.90;;;;;;5073980;28;20020;-74
2021/01/12 01:31:46;;;;;;;9.30;6.47;;;7.80;96.00;;;;;;5074991;28;20028;-77
2021/01/12 01:34:12;;;;;;;7.72;6.93;;;7.80;96.00;;;;;;5074605;28;20405;-76
2021/01/12 01:36:37;;;;;;;7.80;7.00;;;7.80;96.00;;;;;;5074171;28;20484;-74
2021/01/12 01:39:04;;;;;;;7.35;6.65;;;7.90;96.00;;;;;;5073396;28;20017;-77
2021/01/12 01:41:29;;;;;;;6.63;5.93;;;7.90;95.90;;;;;;5074714;28;20024;-75
2021/01/12 01:43:55;;;;;;;6.85;6.25;;;7.90;95.90;;;;;;5073822;28;20032;-74
2021/01/12 01:46:20;;;;;;;5.75;5.18;;;7.80;95.90;;;;;;5073052;28;20051;-75
2021/01/12 01:48:50;;;;;;;6.75;6.25;;;7.80;95.90;;;;;;5073825;28;20031;-76
2021/01/12 01:51:16;;;;;;;6.28;5.68;;;7.80;95.90;;;;;;5074228;28;20028;-75
2021/01/12 01:53:43;;;;;;;6.78;6.18;;;7.90;95.90;;;;;;5074629;28;20023;-76
2021/01/12 01:56:08;;;;;;;5.85;5.35;;;7.90;95.90;;;;;;5071760;28;20016;-77
2021/01/12 01:58:41;;;;;;;6.03;5.50;;;7.90;95.90;;;;;;5074678;28;20024;-76
2021/01/12 02:01:07;;;;;;;5.57;5.07;;;7.90;95.90;;;;;;5073844;28;20035;-76
2021/01/12 02:03:44;;;;;;;6.03;5.45;;;8.00;95.80;;;;;;5073557;28;20032;-75
2021/01/12 02:06:22;;;;;;;6.32;5.72;;;7.90;95.80;;;;;;5073877;28;20111;-77
2021/01/12 02:09:00;;;;;;;5.78;5.28;;;7.90;95.90;;;;;;5072543;28;20017;-76
2021/01/12 02:11:29;;;;;;;6.20;5.70;;;7.90;95.90;;;;;;5073443;28;20055;-77
2021/01/12 02:14:01;;;;;;;5.13;4.63;;;8.00;95.80;;;;;;5072682;28;20020;-76
2021/01/12 02:16:29;;;;;;;5.45;4.88;;;8.00;95.90;;;;;;5073309;28;20047;-77
2021/01/12 02:18:57;;;;;;;5.35;4.85;;;7.90;95.80;;;;;;5071758;28;20105;-76
2021/01/12 02:21:23;;;;;;;5.90;5.30;;;7.90;95.90;;;;;;5073735;28;20388;-77
2021/01/12 02:23:57;;;;;;;6.30;5.80;;;7.90;95.90;;;;;;5072835;28;20163;-77
2021/01/12 02:26:24;;;;;;;5.80;5.30;;;7.90;96.00;;;;;;5072664;28;20630;-76
2021/01/12 02:28:50;;;;;;;5.97;5.47;;;7.90;96.00;;;;;;5073644;28;20017;-77
2021/01/12 02:31:16;;;;;;;5.78;4.60;;;7.90;96.10;;;;;;5072592;28;20032;-77
2021/01/12 02:33:44;;;;;;;5.93;5.40;;;7.90;96.10;;;;;;5073720;28;20104;-77
2021/01/12 02:36:13;;;;;;;6.45;5.85;;;7.90;96.20;;;;;;5073117;28;20052;-76
2021/01/12 02:38:40;;;;;;;6.40;5.35;;;7.90;96.20;;;;;;5073072;28;20039;-77
2021/01/12 02:41:13;;;;;;;4.85;4.45;;;8.00;96.30;;;;;;5073388;28;20023;-76
2021/01/12 02:43:41;;;;;;;6.30;4.70;;;8.00;96.30;;;;;;5073606;28;20055;-77
2021/01/12 02:46:06;;;;;;;5.25;4.53;;;8.00;96.30;;;;;;5072599;28;20044;-77
2021/01/12 02:48:32;;;;;;;5.40;4.30;;;7.90;96.30;;;;;;5073562;28;20056;-76
2021/01/12 02:50:57;;;;;;;4.47;3.92;;;7.90;96.30;;;;;;5073034;28;20052;-74
2021/01/12 02:53:23;;;;;;;5.28;4.38;;;7.90;96.40;;;;;;5071036;28;20036;-74
2021/01/12 02:55:49;;;;;;;5.18;4.13;;;7.90;96.50;;;;;;5073292;28;20074;-76
2021/01/12 02:58:14;;;;;;;4.50;3.65;;;7.90;96.60;;;;;;5072896;28;20082;-74
2021/01/12 03:00:40;;;;;;;5.07;3.55;;;8.00;96.60;;;;;;5071169;28;20020;-76
2021/01/12 03:03:05;;;;;;;6.63;4.13;;;8.00;96.60;;;;;;5072720;28;20033;-74
2021/01/12 03:05:31;;;;;;;4.82;3.53;;;8.00;96.60;;;;;;5073215;28;20534;-73
2021/01/12 03:07:56;;;;;;;3.03;2.83;;;8.00;96.70;;;;;;5072106;28;20039;-77
2021/01/12 03:10:22;;;;;;;5.22;3.95;;;8.10;96.70;;;;;;5072710;28;20437;-76
2021/01/12 03:12:47;;;;;;;3.67;3.38;;;8.10;96.60;;;;;;5071740;28;20054;-75
2021/01/12 03:15:13;;;;;;;4.40;3.38;;;8.10;96.60;;;;;;5070693;28;20361;-77
2021/01/12 03:17:39;;;;;;;3.45;3.15;;;8.10;96.60;;;;;;5071637;28;20097;-75
2021/01/12 03:20:05;;;;;;;4.55;3.38;;;8.10;96.60;;;;;;5071542;28;20492;-74
2021/01/12 03:22:31;;;;;;;4.63;3.70;;;8.10;96.60;;;;;;5072786;28;20032;-73
2021/01/12 03:24:56;;;;;;;4.30;3.40;;;8.10;96.60;;;;;;5072933;28;20021;-77
2021/01/12 03:27:22;;;;;;;4.57;3.90;;;8.10;96.70;;;;;;5072043;28;20032;-77
2021/01/12 03:29:47;;;;;;;4.45;3.88;;;8.10;96.70;;;;;;5071546;28;20051;-75
2021/01/12 03:32:13;;;;;;;5.05;3.67;;;8.20;96.70;;;;;;5072524;28;20081;-77
2021/01/12 03:34:38;;;;;;;3.75;2.80;;;8.20;96.70;;;;;;5071896;28;20077;-75
2021/01/12 03:37:04;;;;;;;4.18;3.45;;;8.20;96.70;;;;;;5071604;28;20040;-76
2021/01/12 03:39:29;;;;;;;3.83;3.20;;;8.20;96.70;;;;;;5072618;28;20035;-77
2021/01/12 03:41:55;;;;;;;4.82;2.88;;;8.20;96.70;;;;;;5072065;28;20468;-77
2021/01/12 03:44:21;;;;;;;4.30;3.40;;;8.20;96.70;;;;;;5072462;28;20025;-76
2021/01/12 03:46:46;;;;;;;4.25;2.80;;;8.20;96.70;;;;;;5071782;28;20028;-73
2021/01/12 03:49:12;;;;;;;4.97;3.38;;;8.20;96.70;;;;;;5071365;28;20466;-77
2021/01/12 03:51:37;;;;;;;5.60;3.35;;;8.10;96.70;;;;;;5072523;28;20118;-78
2021/01/12 03:54:03;;;;;;;3.92;2.60;;;8.20;96.70;;;;;;5072301;28;20032;-76
2021/01/12 03:56:28;;;;;;;4.22;2.70;;;8.20;96.70;;;;;;5071746;28;20048;-75
2021/01/12 03:58:54;;;;;;;6.10;3.13;;;8.20;96.70;;;;;;5072298;28;20036;-75
2021/01/12 04:01:20;;;;;;;7.53;3.10;;;8.20;96.70;;;;;;5072515;28;20021;-76
2021/01/12 04:03:45;;;;;;;4.97;2.40;;;8.20;96.70;;;;;;5071805;28;20024;-74
2021/01/12 04:06:15;;;;;;;4.43;2.22;;;8.20;96.70;;;;;;5072057;28;20088;-76
2021/01/12 04:08:43;;;;;;;4.20;2.03;;;8.30;96.70;;;;;;5072494;28;20023;-76
2021/01/12 04:11:10;;;;;;;2.53;1.90;;;8.20;96.70;;;;;;5071554;28;20453;-76
2021/01/12 04:13:36;;;;;;;5.40;2.65;;;8.30;96.70;;;;;;5072301;28;20099;-77
2021/01/12 04:16:02;;;;;;;2.83;2.33;;;8.30;96.70;;;;;;5070911;28;20059;-75
2021/01/12 04:18:28;;;;;;;3.60;1.90;;;8.30;96.70;;;;;;5071390;28;20489;-74
2021/01/12 04:20:54;;;;;;;3.80;1.95;;;8.30;96.70;;;;;;5070767;28;20111;-74
2021/01/12 04:23:19;;;;;;;3.75;2.03;;;8.40;96.70;;;;;;5071640;28;20052;-73
2021/01/12 04:25:45;;;;;;;2.63;1.92;;;8.40;96.70;;;;;;5070722;28;20025;-73
2021/01/12 04:28:10;;;;;;;5.05;2.40;;;8.40;96.60;;;;;;5071698;28;20032;-78
2021/01/12 04:30:36;;;;;;;4.38;2.00;;;8.40;96.60;;;;;;5071421;28;20025;-79
2021/01/12 04:33:02;;;;;;;4.35;2.50;;;8.40;96.60;;;;;;5072220;28;20025;-78
2021/01/12 04:35:28;;;;;;;3.30;2.15;;;8.40;96.60;;;;;;5071979;28;20025;-76
2021/01/12 04:37:54;;;;;;;4.53;2.28;;;8.40;96.60;;;;;;5071183;28;20094;-77
2021/01/12 04:40:20;;;;;;;6.57;2.70;;;8.40;96.60;;;;;;5071728;28;20416;-78
2021/01/12 04:42:45;;;;;;;2.90;1.83;;;8.40;96.60;;;;;;5071932;28;20025;-77
2021/01/12 04:45:11;;;;;;;6.03;2.05;;;8.40;96.60;;;;;;5069562;28;20025;-78
2021/01/12 04:47:37;;;;;;;5.47;2.63;;;8.40;96.70;;;;;;5074574;28;20063;-77
2021/01/12 04:50:04;;;;;;;3.75;2.10;;;8.40;96.70;;;;;;5075743;28;20032;-77
2021/01/12 04:52:41;;;;;;;5.20;1.70;;;8.40;96.60;;;;;;5075151;28;20615;-78
2021/01/12 04:55:07;;;;;;;3.13;1.67;;;8.30;96.70;;;;;;5075246;28;20389;-78
2021/01/12 04:57:33;;;;;;;3.33;2.17;;;8.30;96.70;;;;;;5075337;28;20037;-77
2021/01/12 04:59:58;;;;;;;3.38;1.98;;;8.40;96.70;;;;;;5073541;28;20012;-78
2021/01/12 05:02:24;;;;;;;4.85;2.70;;;8.40;96.80;;;;;;5075393;28;20381;-75
2021/01/12 05:04:49;;;;;;;4.20;2.30;;;8.40;96.80;;;;;;5075369;28;20024;-75
2021/01/12 05:07:15;;;;;;;3.15;2.30;;;8.40;96.80;;;;;;5074439;28;20049;-77
2021/01/12 05:09:43;;;;;;;4.18;2.30;;;8.40;96.80;;;;;;5075356;28;20016;-79
2021/01/12 05:12:12;;;;;;;4.55;2.20;;;8.50;96.70;;;;;;5074892;28;20016;-77
2021/01/12 05:14:40;;;;;;;6.45;3.13;;;8.50;96.70;;;;;;5074551;28;20020;-76
2021/01/12 05:17:08;;;;;;;3.78;2.00;;;8.50;96.70;;;;;;5074567;28;20040;-77
2021/01/12 05:19:33;;;;;;;5.78;3.13;;;8.50;96.70;;;;;;5075167;28;20031;-75
2021/01/12 05:22:04;;;;;;;3.63;2.10;;;8.50;96.70;;;;;;5074648;28;20028;-75
2021/01/12 05:24:38;;;;;;;7.20;2.42;;;8.50;96.60;;;;;;5075086;28;20024;-77
2021/01/12 05:27:06;;;;;;;5.65;1.90;;;8.50;96.60;;;;;;5073936;28;20472;-71
2021/01/12 05:29:36;;;;;;;4.82;2.38;;;8.50;96.60;;;;;;5075167;28;20021;-77
2021/01/12 05:32:10;;;;;;;3.65;1.95;;;8.50;96.60;;;;;;5073711;28;20024;-77
2021/01/12 05:34:38;;;;;;;4.55;2.78;;;8.50;96.70;;;;;;5073053;28;20354;-77
2021/01/12 05:37:06;;;;;;;3.40;2.33;;;8.50;96.80;;;;;;5074358;28;20409;-76
2021/01/12 05:39:40;;;;;;;4.05;2.58;;;8.50;96.80;;;;;;5073670;28;20110;-77
2021/01/12 05:42:08;;;;;;;5.50;2.58;;;8.50;96.80;;;;;;5073727;28;20029;-77
2021/01/12 05:44:39;;;;;;;4.63;2.50;;;8.50;96.80;;;;;;5074586;28;20025;-70
2021/01/12 05:47:05;;;;;;;4.97;2.97;;;8.50;96.70;;;;;;5074241;28;20052;-75
2021/01/12 05:49:31;;;;;;;3.90;2.65;;;8.50;96.70;;;;;;5073611;28;20029;-76
2021/01/12 05:51:57;;;;;;;5.38;2.90;;;8.50;96.70;;;;;;5074170;28;20483;-78
2021/01/12 05:54:26;;;;;;;5.50;2.80;;;8.50;96.80;;;;;;5074499;28;20020;-77
2021/01/12 05:56:59;;;;;;;3.58;2.38;;;8.60;96.80;;;;;;5073203;28;20036;-77
2021/01/12 05:59:27;;;;;;;6.35;3.35;;;8.60;96.70;;;;;;5073525;28;20143;-78
2021/01/12 06:01:56;;;;;;;6.68;3.00;;;8.60;96.80;;;;;;5072086;28;20037;-73
2021/01/12 06:04:23;;;;;;;3.53;1.88;;;8.50;96.80;;;;;;5073864;28;20465;-77
2021/01/12 06:06:51;;;;;;;2.15;1.50;;;8.60;96.80;;;;;;5074391;28;20028;-80
2021/01/12 06:09:18;;;;;;;2.45;1.60;;;8.60;96.70;;;;;;5073264;28;20048;-76
2021/01/12 06:11:50;;;;;;;139.18;9.68;;;8.60;96.70;;;;;;5071582;28;20024;-74
2021/01/12 06:14:36;;;;;;;;;;;8.70;96.70;;;;;;5074266;28;20043;-76
2021/01/12 06:17:02;;;;;;;180.25;8.35;;;8.70;96.60;;;;;;5072717;28;20356;-77
2021/01/12 06:19:29;;;;;;;3.08;2.70;;;8.70;96.50;;;;;;5073485;28;20507;-76
2021/01/12 06:21:54;;;;;;;6.55;3.75;;;8.80;96.60;;;;;;5073681;28;20039;-76
2021/01/12 06:24:35;;;;;;;3.45;3.15;;;8.90;96.50;;;;;;5072925;28;20368;-78
2021/01/12 06:27:01;;;;;;;3.63;2.67;;;8.90;96.40;;;;;;5071327;28;20082;-77
2021/01/12 06:29:30;;;;;;;165.65;10.70;;;9.00;96.40;;;;;;5070913;28;20083;-78
2021/01/12 06:31:57;;;;;;;21.35;3.80;;;9.10;96.30;;;;;;5069843;28;20021;-79
2021/01/12 06:34:24;;;;;;;4.15;2.60;;;9.20;96.10;;;;;;5072160;28;20040;-72
2021/01/12 06:36:53;;;;;;;8.43;2.78;;;9.30;96.00;;;;;;5073214;28;20025;-76
2021/01/12 06:39:40;;;;;;;250.52;16.52;;;9.30;95.90;;;;;;5071343;28;20091;-76
2021/01/12 06:42:07;;;;;;;17.58;4.10;;;9.30;95.80;;;;;;5072955;28;20111;-75
2021/01/12 06:44:35;;;;;;;2.30;1.80;;;9.30;95.80;;;;;;5071493;28;20351;-73
2021/01/12 06:47:01;;;;;;;118.28;7.88;;;9.30;95.70;;;;;;5073106;28;20031;-74
2021/01/12 06:49:28;;;;;;;3.25;2.22;;;9.30;95.70;;;;;;5073053;28;20085;-74
2021/01/12 06:52:01;;;;;;;3.55;2.65;;;9.30;95.80;;;;;;5072383;28;20028;-74
2021/01/12 06:55:02;;;;;;;2.33;2.00;;;9.30;95.70;;;;;;5072731;28;20082;-76
2021/01/12 06:57:32;;;;;;;4.82;2.47;;;9.30;95.50;;;;;;5070914;28;20127;-75
2021/01/12 06:59:57;;;;;;;46.40;4.50;;;9.30;95.40;;;;;;5072310;28;20028;-75
2021/01/12 07:02:28;;;;;;;2.80;2.17;;;9.40;95.40;;;;;;5072774;28;20468;-75
2021/01/12 07:04:57;;;;;;;4.20;2.10;;;9.40;95.50;;;;;;5072649;28;20472;-75
2021/01/12 07:07:24;;;;;;;4.78;2.30;;;9.30;95.20;;;;;;5072417;28;20900;-76
2021/01/12 07:09:54;;;;;;;51.83;4.95;;;9.30;95.10;;;;;;5071930;28;20023;-74
2021/01/12 07:12:21;;;;;;;2.97;1.90;;;9.30;95.30;;;;;;5071856;28;20457;-75
2021/01/12 07:14:50;;;;;;;2.83;1.90;;;9.20;95.20;;;;;;5071815;28;20016;-77
2021/01/12 07:17:30;;;;;;;4.70;2.10;;;9.20;95.10;;;;;;5072647;28;20447;-78
2021/01/12 07:20:26;;;;;;;4.38;2.38;;;9.10;95.10;;;;;;5072338;28;20017;-77
2021/01/12 07:22:54;;;;;;;3.10;1.80;;;9.10;95.10;;;;;;5051896;28;20037;-77
2021/01/12 07:25:49;;;;;;;2.63;1.65;;;9.10;95.20;;;;;;5086161;28;20029;-76
2021/01/12 07:28:14;;;;;;;62.30;4.20;;;9.10;95.10;;;;;;5075561;28;20079;-77
2021/01/12 07:30:45;;;;;;;5.47;2.45;;;9.00;95.00;;;;;;5065888;28;20021;-78
2021/01/12 07:33:19;;;;;;;3.80;2.13;;;8.90;95.20;;;;;;5071257;28;20388;-77
2021/01/12 07:35:47;;;;;;;3.33;1.63;;;8.90;95.20;;;;;;5072893;28;20357;-73
2021/01/12 07:38:17;;;;;;;2.63;1.80;;;8.90;95.50;;;;;;5072073;28;20029;-77
2021/01/12 07:40:45;;;;;;;1054.88;73.60;;;8.90;95.10;;;;;;5072129;28;20029;-78
2021/01/12 07:43:18;;;;;;;4.88;2.20;;;8.80;95.20;;;;;;5071733;28;20021;-74
2021/01/12 07:45:46;;;;;;;6.25;2.67;;;8.80;95.20;;;;;;5061160;28;20379;-78
2021/01/12 07:48:13;;;;;;;3.53;2.13;;;8.80;95.20;;;;;;5069496;28;20046;-80
2021/01/12 07:50:45;;;;;;;29.65;3.85;;;8.90;95.20;;;;;;5071555;28;20055;-80
2021/01/12 07:53:11;;;;;;;;;;;8.90;95.20;;;;;;5072154;28;20476;-79
2021/01/12 07:55:44;;;;;;;6.00;2.70;;;8.90;95.20;;;;;;5070973;28;19911;-75
2021/01/12 07:58:10;;;;;;;4.80;2.17;;;8.90;95.10;;;;;;5053355;28;20044;-75
2021/01/12 08:00:36;;;;;;;3.78;2.28;;;8.90;95.00;;;;;;5071692;28;20024;-74
2021/01/12 08:03:04;;;;;;;5.85;2.13;;;8.90;95.00;;;;;;5070843;28;20032;-76
2021/01/12 08:05:31;;;;;;;1.88;1.67;;;8.90;95.00;;;;;;5072168;28;20024;-78
2021/01/12 08:08:06;;;;;;;8.95;2.35;;;8.80;95.00;;;;;;5071601;28;20428;-72
2021/01/12 08:10:34;;;;;;;9.75;2.60;;;8.80;95.00;;;;;;5071013;28;20031;-73
2021/01/12 08:13:09;;;;;;;4.25;2.70;;;8.80;95.00;;;;;;5071409;28;20366;-74
2021/01/12 08:15:36;;;;;;;2.13;1.98;;;8.90;95.00;;;;;;5071375;28;20052;-74
2021/01/12 08:18:05;;;;;;;2.70;2.17;;;8.90;95.00;;;;;;5071428;28;20080;-73
2021/01/12 08:20:31;;;;;;;53.38;5.35;;;9.00;94.90;;;;;;5071487;28;20025;-72
2021/01/12 08:22:57;;;;;;;2.28;2.10;;;8.90;94.90;;;;;;5072380;28;20032;-72
2021/01/12 08:25:23;;;;;;;3.53;2.20;;;8.90;95.10;;;;;;5075032;28;20582;-72
2021/01/12 08:27:54;;;;;;;4.50;2.13;;;8.80;95.00;;;;;;5075024;28;20029;-72
2021/01/12 08:30:25;;;;;;;5.13;1.90;;;8.80;94.90;;;;;;5073012;28;20065;-71
2021/01/12 08:33:08;;;;;;;3.72;2.40;;;8.70;94.90;;;;;;5074776;28;20055;-72
2021/01/12 08:35:38;;;;;;;2.67;2.00;;;8.70;95.00;;;;;;5075200;28;20377;-71
2021/01/12 08:38:07;;;;;;;4.15;2.10;;;8.60;94.80;;;;;;5072903;28;20032;-70
2021/01/12 08:40:34;;;;;;;3.70;2.05;;;8.60;94.80;;;;;;5072642;28;20384;-73
2021/01/12 08:43:01;;;;;;;3.85;2.45;;;8.70;94.90;;;;;;5073644;28;20024;-74
2021/01/12 08:45:31;;;;;;;2.08;1.83;;;8.70;94.90;;;;;;5074252;28;20020;-73
2021/01/12 08:48:11;;;;;;;3.25;2.00;;;8.70;94.80;;;;;;5074880;28;20028;-73
2021/01/12 08:50:37;;;;;;;5.85;2.28;;;8.60;94.60;;;;;;5073989;28;20053;-74
2021/01/12 08:53:03;;;;;;;2.25;1.77;;;8.70;94.60;;;;;;5073703;28;20115;-71
2021/01/12 08:55:28;;;;;;;4.20;2.00;;;8.60;94.60;;;;;;5074790;28;20036;-71
2021/01/12 08:57:59;;;;;;;4.90;1.92;;;8.50;94.30;;;;;;5073809;28;20035;-73
2021/01/12 09:00:29;;;;;;;2.53;1.65;;;8.40;94.00;;;;;;5073960;28;20020;-74
2021/01/12 09:02:56;;;;;;;3.08;1.50;;;8.30;93.80;;;;;;5055523;28;20408;-71
2021/01/12 09:05:21;;;;;;;2.30;1.65;;;8.20;94.10;;;;;;5073836;28;20024;-71
2021/01/12 09:08:05;;;;;;;3.40;1.30;;;8.10;94.10;;;;;;5074589;28;20024;-71
2021/01/12 09:10:32;;;;;;;8.38;1.67;;;8.00;94.20;;;;;;5074165;28;20062;-71
2021/01/12 09:12:58;;;;;;;2.33;1.20;;;8.00;94.20;;;;;;5072245;28;20028;-72
2021/01/12 09:15:32;;;;;;;1.83;1.10;;;8.10;94.20;;;;;;5074392;28;20481;-72
2021/01/12 09:18:06;;;;;;;3.25;1.50;;;8.10;94.10;;;;;;5072584;28;20055;-71
2021/01/12 09:20:33;;;;;;;19.58;2.50;;;8.20;93.90;;;;;;5053775;28;20104;-72
2021/01/12 09:23:06;;;;;;;5.43;2.92;;;8.30;93.80;;;;;;5057242;28;20039;-74
2021/01/12 09:25:33;;;;;;;10.55;1.98;;;8.40;93.90;;;;;;5074346;28;20531;-72
2021/01/12 09:28:16;;;;;;;3.65;1.30;;;8.40;93.50;;;;;;5072025;28;20024;-71
2021/01/12 09:30:44;;;;;;;6.30;1.95;;;8.20;93.50;;;;;;5072948;28;20025;-71
2021/01/12 09:33:23;;;;;;;3.67;1.30;;;8.20;93.50;;;;;;5071615;28;20481;-71
2021/01/12 09:36:04;;;;;;;4.90;1.75;;;8.10;93.60;;;;;;5074127;28;20025;-71
2021/01/12 09:38:47;;;;;;;9.63;2.95;;;8.10;93.60;;;;;;5074068;28;20029;-71
2021/01/12 09:41:14;;;;;;;3.00;1.60;;;8.10;93.60;;;;;;5052885;28;20028;-72
2021/01/12 09:43:41;;;;;;;4.80;1.38;;;8.20;93.50;;;;;;5053777;28;20122;-73
2021/01/12 09:46:07;;;;;;;5.85;1.83;;;8.10;93.30;;;;;;5052201;28;20477;-72
2021/01/12 09:48:33;;;;;;;6.30;2.10;;;8.00;93.50;;;;;;5052938;28;20108;-72
2021/01/12 09:50:59;;;;;;;5.55;2.33;;;8.00;93.80;;;;;;5055123;28;20033;-71
2021/01/12 09:53:25;;;;;;;6.47;1.98;;;8.00;93.60;;;;;;5073311;28;20028;-72
2021/01/12 09:55:50;;;;;;;6.15;1.35;;;8.00;93.70;;;;;;5071734;28;20028;-73
2021/01/12 09:58:16;;;;;;;5.93;1.45;;;8.00;93.70;;;;;;5073309;28;20102;-71
2021/01/12 10:00:41;;;;;;;5.90;1.52;;;8.00;93.80;;;;;;5073711;28;20100;-73
2021/01/12 10:03:07;;;;;;;5.60;1.85;;;8.00;93.60;;;;;;5072243;28;20112;-74
2021/01/12 10:05:40;;;;;;;6.60;1.60;;;7.90;93.50;;;;;;5073671;28;20023;-73
2021/01/12 10:08:07;;;;;;;5.75;1.50;;;7.90;93.40;;;;;;5072416;28;20029;-71
2021/01/12 10:10:33;;;;;;;6.40;2.00;;;7.90;93.70;;;;;;5073467;28;20017;-74
2021/01/12 10:12:59;;;;;;;7.13;2.15;;;7.90;93.60;;;;;;5073081;28;20433;-75
2021/01/12 10:15:25;;;;;;;8.00;1.98;;;7.90;93.60;;;;;;5071275;28;20052;-72
2021/01/12 10:17:50;;;;;;;9.18;3.22;;;7.80;93.70;;;;;;5072974;28;20045;-77
2021/01/12 10:20:16;;;;;;;7.78;2.20;;;7.90;93.90;;;;;;5072687;28;20024;-75
2021/01/12 10:22:41;;;;;;;8.02;2.58;;;7.90;94.00;;;;;;5072255;28;20043;-76
2021/01/12 10:25:07;;;;;;;6.95;1.60;;;7.90;93.90;;;;;;5072778;28;20039;-74
2021/01/12 10:27:36;;;;;;;16.13;2.15;;;7.90;93.50;;;;;;5073232;28;20024;-74
2021/01/12 10:30:04;;;;;;;2.00;1.13;;;7.90;93.40;;;;;;5060001;28;20565;-72
2021/01/12 10:32:29;;;;;;;6.10;1.90;;;7.80;93.40;;;;;;5070983;28;20031;-72
2021/01/12 10:34:55;;;;;;;4.85;1.13;;;7.70;93.30;;;;;;5070509;28;20024;-75
2021/01/12 10:37:20;;;;;;;14.95;2.20;;;7.70;93.40;;;;;;5071955;28;20438;-74
2021/01/12 10:39:46;;;;;;;4.88;1.20;;;7.70;93.40;;;;;;5072169;28;20100;-71
2021/01/12 10:42:12;;;;;;;3.88;1.33;;;7.70;93.50;;;;;;5070559;28;20032;-70
2021/01/12 10:44:37;;;;;;;3.40;1.20;;;7.60;93.20;;;;;;5071685;28;20117;-71
2021/01/12 10:47:03;;;;;;;134.90;10.40;;;7.50;92.90;;;;;;5072299;28;20500;-73
2021/01/12 10:49:29;;;;;;;4.07;1.00;;;7.40;93.00;;;;;;5072752;28;20457;-76
2021/01/12 10:52:03;;;;;;;3.58;2.00;;;7.30;92.90;;;;;;5072208;28;20027;-75
2021/01/12 15:32:45;;;;;;;15.95;2.67;;;6.40;84.80;;;;;;5391173;23;20085;-80
2021/01/12 15:35:11;;;;;;;9.35;2.78;;;6.20;85.30;;;;;;4900276;29;20037;-71
2021/01/12 15:37:37;;;;;;;7.68;1.92;;;6.10;86.10;;;;;;4896371;29;20077;-71
2021/01/12 15:40:03;;;;;;;9.65;2.08;;;6.10;87.40;;;;;;4895268;29;20397;-72
2021/01/12 15:42:30;;;;;;;9.77;1.85;;;6.00;87.10;;;;;;4879957;29;20036;-75
2021/01/12 15:44:56;;;;;;;8.05;1.95;;;6.00;87.50;;;;;;4896131;29;20381;-81
2021/01/12 15:47:21;;;;;;;8.05;1.90;;;6.00;88.10;;;;;;4895578;29;20036;-80
2021/01/12 15:49:47;;;;;;;11.05;2.33;;;5.90;88.10;;;;;;4879532;29;20025;-75
2021/01/12 15:52:12;;;;;;;9.90;2.25;;;5.90;88.30;;;;;;4895997;29;20040;-76
2021/01/12 15:54:42;;;;;;;9.15;1.98;;;5.80;88.00;;;;;;4878905;29;20036;-82
2021/01/12 15:57:07;;;;;;;8.32;1.90;;;5.80;88.30;;;;;;4895783;29;20035;-73
2021/01/12 15:59:33;;;;;;;7.07;2.20;;;5.80;88.00;;;;;;4896335;29;20107;-73
2021/01/12 16:01:59;;;;;;;6.85;2.20;;;5.70;87.80;;;;;;4878989;29;20033;-74
2021/01/12 16:04:25;;;;;;;7.60;2.08;;;5.70;87.90;;;;;;4895459;29;20028;-76
2021/01/12 16:06:51;;;;;;;5.32;2.00;;;5.70;88.20;;;;;;4896141;29;20041;-79
2021/01/12 16:09:18;;;;;;;11.15;2.55;;;5.60;88.70;;;;;;4878551;29;20021;-76
2021/01/12 16:11:47;;;;;;;14.57;5.82;;;5.60;88.80;;;;;;4879272;29;20388;-78
2021/01/12 16:14:13;;;;;;;30.88;13.88;;;5.50;89.00;;;;;;4878711;29;20055;-78
2021/01/12 16:16:41;;;;;;;20.42;7.72;;;5.50;89.40;;;;;;4895579;29;20523;-75
2021/01/12 16:19:08;;;;;;;19.73;9.68;;;5.50;89.70;;;;;;4895881;29;20033;-77
2021/01/12 16:21:35;;;;;;;15.13;3.05;;;5.40;89.70;;;;;;4895802;29;20052;-78
2021/01/12 16:24:00;;;;;;;9.93;3.95;;;5.40;89.80;;;;;;4879071;29;20036;-77
2021/01/12 16:26:26;;;;;;;15.15;6.15;;;5.30;90.00;;;;;;4895097;29;20485;-75
2021/01/12 16:28:52;;;;;;;16.85;5.10;;;5.40;90.20;;;;;;4873708;29;20834;-78
2021/01/12 16:31:19;;;;;;;9.98;4.75;;;5.30;90.20;;;;;;4886338;29;20397;-73
2021/01/12 16:33:47;;;;;;;12.00;4.10;;;5.30;90.30;;;;;;4876114;29;20064;-79
2021/01/12 16:36:24;;;;;;;12.85;5.32;;;5.30;90.40;;;;;;4856520;29;20029;-80
2021/01/12 16:38:50;;;;;;;11.13;3.47;;;5.30;90.60;;;;;;4842629;29;20053;-74
2021/01/12 16:41:19;;;;;;;23.38;11.38;;;5.20;90.70;;;;;;4871784;29;20400;-74
2021/01/12 16:43:58;;;;;;;117.95;52.05;;;5.20;90.90;;;;;;4894086;29;20036;-73
2021/01/12 16:46:24;;;;;;;149.93;64.50;;;5.10;91.10;;;;;;4894261;29;20111;-72
2021/01/12 16:48:50;;;;;;;65.78;28.08;;;5.10;91.20;;;;;;4896097;29;20106;-73
2021/01/12 16:51:17;;;;;;;43.50;20.15;;;5.20;91.10;;;;;;4878393;29;20038;-76
2021/01/12 16:53:47;;;;;;;19.92;10.38;;;5.20;91.10;;;;;;4879304;29;20560;-70
2021/01/12 16:56:22;;;;;;;12.13;5.22;;;5.20;91.10;;;;;;4895593;29;20040;-75
2021/01/12 16:58:54;;;;;;;10.50;4.10;;;5.20;91.20;;;;;;4895405;29;20053;-72
2021/01/12 17:01:21;;;;;;;10.55;4.13;;;5.30;91.10;;;;;;4879001;29;20386;-80
2021/01/12 17:03:49;;;;;;;17.58;7.00;;;5.20;91.40;;;;;;4863507;29;20032;-72
2021/01/12 17:06:14;;;;;;;25.30;12.10;;;5.10;91.20;;;;;;4895446;29;20467;-74
2021/01/12 17:08:41;;;;;;;11.30;4.78;;;5.10;91.30;;;;;;4896019;29;20025;-75
2021/01/12 17:11:10;;;;;;;12.00;3.42;;;5.00;91.30;;;;;;4895264;29;20033;-76
2021/01/12 17:13:36;;;;;;;19.25;8.48;;;5.00;91.40;;;;;;4895771;29;20029;-76
2021/01/12 17:16:02;;;;;;;15.90;7.35;;;4.90;91.40;;;;;;4895287;29;20044;-72
2021/01/12 17:18:40;;;;;;;14.45;5.93;;;4.90;91.50;;;;;;4878063;29;20079;-71
2021/01/12 17:21:06;;;;;;;16.33;5.18;;;4.90;91.50;;;;;;4878357;29;20044;-73
2021/01/12 17:23:42;;;;;;;19.83;6.28;;;4.90;91.60;;;;;;4895895;29;20467;-72
2021/01/12 17:26:07;;;;;;;16.92;4.95;;;4.80;91.60;;;;;;4894552;29;20091;-78
2021/01/12 17:28:37;;;;;;;18.58;7.05;;;4.90;91.70;;;;;;4895827;29;20032;-73
2021/01/12 17:31:11;;;;;;;9.50;4.25;;;4.80;91.70;;;;;;4895753;29;20511;-73
2021/01/12 17:33:36;;;;;;;15.57;5.47;;;4.80;91.70;;;;;;4877956;29;20128;-76
2021/01/12 17:36:02;;;;;;;21.13;3.95;;;4.70;91.80;;;;;;4878069;29;20025;-80
2021/01/12 17:38:31;;;;;;;11.88;4.25;;;4.70;91.90;;;;;;4878597;29;20108;-84